Terminal Aerodrome Forecast
Issued by NWS

Home | Current Version | Previous Version | Graphics & Text | Print | Product List | Glossary On
Versions: 1 2 3 4 5 6 7 8 9 10 11 12 13 14
867
FTUS43 KTOP 211734
TAFFOE
TAF
KFOE 211734Z 2118/2218 20015G23KT P6SM FEW250
     FM220100 18011KT P6SM FEW250
     FM220300 18008KT P6SM SCT250 WS010/20030KT
     FM221100 18009KT P6SM SCT250
     FM221700 18011G20KT P6SM SCT200=

USA.gov is the U.S. government's official web portal to all federal, state and local government web resources and services.